sensor_id;sensor_type;location;lat;lon;timestamp;P1;durP1;ratioP1;P2;durP2;ratioP2
47239;SDS011;32978;53.586;10.052;2023-01-16T00:04:07;11.98;;;10.88;;
47239;SDS011;32978;53.586;10.052;2023-01-16T00:09:04;12.35;;;11.15;;
47239;SDS011;32978;53.586;10.052;2023-01-16T00:14:00;12.57;;;11.45;;
47239;SDS011;32978;53.586;10.052;2023-01-16T00:18:57;13.15;;;12.05;;
47239;SDS011;32978;53.586;10.052;2023-01-16T00:23:54;14.20;;;12.52;;
47239;SDS011;32978;53.586;10.052;2023-01-16T00:28:53;15.75;;;12.52;;
47239;SDS011;32978;53.586;10.052;2023-01-16T00:33:49;13.40;;;12.20;;
47239;SDS011;32978;53.586;10.052;2023-01-16T00:38:46;15.85;;;13.40;;
47239;SDS011;32978;53.586;10.052;2023-01-16T00:43:42;15.63;;;13.55;;
47239;SDS011;32978;53.586;10.052;2023-01-16T00:48:39;13.65;;;12.27;;
47239;SDS011;32978;53.586;10.052;2023-01-16T00:53:35;12.82;;;10.23;;
47239;SDS011;32978;53.586;10.052;2023-01-16T00:58:32;14.68;;;12.07;;
47239;SDS011;32978;53.586;10.052;2023-01-16T01:03:28;10.45;;;9.50;;
47239;SDS011;32978;53.586;10.052;2023-01-16T01:08:25;9.80;;;8.90;;
47239;SDS011;32978;53.586;10.052;2023-01-16T01:13:21;10.70;;;9.63;;
47239;SDS011;32978;53.586;10.052;2023-01-16T01:18:18;10.95;;;8.77;;
47239;SDS011;32978;53.586;10.052;2023-01-16T01:23:14;9.88;;;8.75;;
47239;SDS011;32978;53.586;10.052;2023-01-16T01:28:11;10.57;;;8.77;;
47239;SDS011;32978;53.586;10.052;2023-01-16T01:33:07;8.98;;;7.88;;
47239;SDS011;32978;53.586;10.052;2023-01-16T01:38:05;10.50;;;9.50;;
47239;SDS011;32978;53.586;10.052;2023-01-16T01:43:02;12.10;;;9.13;;
47239;SDS011;32978;53.586;10.052;2023-01-16T01:53:08;8.70;;;7.90;;
47239;SDS011;32978;53.586;10.052;2023-01-16T01:58:09;9.30;;;8.50;;
47239;SDS011;32978;53.586;10.052;2023-01-16T02:08:03;7.13;;;6.43;;
47239;SDS011;32978;53.586;10.052;2023-01-16T02:13:00;8.38;;;6.82;;
47239;SDS011;32978;53.586;10.052;2023-01-16T02:17:57;9.48;;;8.55;;
47239;SDS011;32978;53.586;10.052;2023-01-16T02:28:39;8.30;;;7.28;;
47239;SDS011;32978;53.586;10.052;2023-01-16T02:49:49;9.07;;;8.27;;
47239;SDS011;32978;53.586;10.052;2023-01-16T02:54:51;9.70;;;8.85;;
47239;SDS011;32978;53.586;10.052;2023-01-16T03:00:13;10.02;;;9.10;;
47239;SDS011;32978;53.586;10.052;2023-01-16T03:05:15;9.73;;;8.70;;
47239;SDS011;32978;53.586;10.052;2023-01-16T03:10:30;9.60;;;8.70;;
47239;SDS011;32978;53.586;10.052;2023-01-16T03:15:32;8.80;;;7.97;;
47239;SDS011;32978;53.586;10.052;2023-01-16T03:20:39;9.65;;;8.65;;
47239;SDS011;32978;53.586;10.052;2023-01-16T03:26:06;9.10;;;8.10;;
47239;SDS011;32978;53.586;10.052;2023-01-16T03:31:07;9.15;;;8.38;;
47239;SDS011;32978;53.586;10.052;2023-01-16T03:36:08;9.55;;;8.85;;
47239;SDS011;32978;53.586;10.052;2023-01-16T03:41:11;9.68;;;8.75;;
47239;SDS011;32978;53.586;10.052;2023-01-16T03:46:12;10.88;;;9.40;;
47239;SDS011;32978;53.586;10.052;2023-01-16T03:51:21;9.93;;;9.05;;
47239;SDS011;32978;53.586;10.052;2023-01-16T03:56:20;11.10;;;10.13;;
47239;SDS011;32978;53.586;10.052;2023-01-16T04:01:36;10.02;;;9.05;;
47239;SDS011;32978;53.586;10.052;2023-01-16T04:06:51;8.77;;;8.00;;
47239;SDS011;32978;53.586;10.052;2023-01-16T04:11:50;9.45;;;8.73;;
47239;SDS011;32978;53.586;10.052;2023-01-16T04:16:49;11.13;;;9.20;;
47239;SDS011;32978;53.586;10.052;2023-01-16T04:21:46;8.88;;;8.05;;
47239;SDS011;32978;53.586;10.052;2023-01-16T04:26:43;9.65;;;8.73;;
47239;SDS011;32978;53.586;10.052;2023-01-16T04:31:39;12.68;;;8.90;;
47239;SDS011;32978;53.586;10.052;2023-01-16T04:36:36;10.00;;;7.07;;
47239;SDS011;32978;53.586;10.052;2023-01-16T04:41:32;10.95;;;7.97;;
47239;SDS011;32978;53.586;10.052;2023-01-16T04:46:32;8.80;;;7.97;;
47239;SDS011;32978;53.586;10.052;2023-01-16T04:51:29;9.05;;;8.35;;
47239;SDS011;32978;53.586;10.052;2023-01-16T04:56:26;8.07;;;7.47;;
47239;SDS011;32978;53.586;10.052;2023-01-16T05:01:23;8.95;;;7.75;;
47239;SDS011;32978;53.586;10.052;2023-01-16T05:06:19;9.10;;;8.13;;
47239;SDS011;32978;53.586;10.052;2023-01-16T05:11:16;12.25;;;8.35;;
47239;SDS011;32978;53.586;10.052;2023-01-16T05:16:12;7.90;;;7.28;;
47239;SDS011;32978;53.586;10.052;2023-01-16T05:21:09;8.63;;;7.75;;
47239;SDS011;32978;53.586;10.052;2023-01-16T05:26:05;8.95;;;8.15;;
47239;SDS011;32978;53.586;10.052;2023-01-16T05:31:02;9.52;;;7.68;;
47239;SDS011;32978;53.586;10.052;2023-01-16T05:35:59;10.60;;;9.15;;
47239;SDS011;32978;53.586;10.052;2023-01-16T05:40:55;10.57;;;9.48;;
47239;SDS011;32978;53.586;10.052;2023-01-16T05:45:53;9.10;;;8.40;;
47239;SDS011;32978;53.586;10.052;2023-01-16T05:50:50;9.30;;;8.52;;
47239;SDS011;32978;53.586;10.052;2023-01-16T05:55:47;10.07;;;9.20;;
47239;SDS011;32978;53.586;10.052;2023-01-16T06:00:43;9.52;;;8.65;;
47239;SDS011;32978;53.586;10.052;2023-01-16T06:05:40;10.85;;;8.52;;
47239;SDS011;32978;53.586;10.052;2023-01-16T06:10:36;14.65;;;9.23;;
47239;SDS011;32978;53.586;10.052;2023-01-16T06:15:33;9.55;;;8.82;;
47239;SDS011;32978;53.586;10.052;2023-01-16T06:20:29;9.60;;;8.82;;
47239;SDS011;32978;53.586;10.052;2023-01-16T06:25:25;10.75;;;9.60;;
47239;SDS011;32978;53.586;10.052;2023-01-16T06:30:22;10.65;;;9.65;;
47239;SDS011;32978;53.586;10.052;2023-01-16T06:35:18;10.57;;;9.60;;
47239;SDS011;32978;53.586;10.052;2023-01-16T06:40:15;11.30;;;10.30;;
47239;SDS011;32978;53.586;10.052;2023-01-16T06:45:12;11.55;;;10.70;;
47239;SDS011;32978;53.586;10.052;2023-01-16T06:50:08;13.50;;;10.52;;
47239;SDS011;32978;53.586;10.052;2023-01-16T06:55:05;11.65;;;10.50;;
47239;SDS011;32978;53.586;10.052;2023-01-16T07:00:03;11.13;;;10.10;;
47239;SDS011;32978;53.586;10.052;2023-01-16T07:05:00;10.65;;;9.73;;
47239;SDS011;32978;53.586;10.052;2023-01-16T07:09:56;11.15;;;10.15;;
47239;SDS011;32978;53.586;10.052;2023-01-16T07:14:52;10.82;;;10.00;;
47239;SDS011;32978;53.586;10.052;2023-01-16T07:20:09;11.38;;;10.48;;
47239;SDS011;32978;53.586;10.052;2023-01-16T07:25:32;12.70;;;11.80;;
47239;SDS011;32978;53.586;10.052;2023-01-16T07:30:30;12.68;;;11.50;;
47239;SDS011;32978;53.586;10.052;2023-01-16T07:35:27;12.15;;;11.25;;
47239;SDS011;32978;53.586;10.052;2023-01-16T07:40:23;13.32;;;12.15;;
47239;SDS011;32978;53.586;10.052;2023-01-16T07:45:20;13.02;;;12.02;;
47239;SDS011;32978;53.586;10.052;2023-01-16T07:50:16;12.75;;;11.85;;
47239;SDS011;32978;53.586;10.052;2023-01-16T07:55:13;13.65;;;12.65;;
47239;SDS011;32978;53.586;10.052;2023-01-16T08:00:10;13.55;;;12.55;;
47239;SDS011;32978;53.586;10.052;2023-01-16T08:05:08;13.50;;;12.43;;
47239;SDS011;32978;53.586;10.052;2023-01-16T08:10:05;13.10;;;12.10;;
47239;SDS011;32978;53.586;10.052;2023-01-16T08:15:02;14.07;;;13.07;;
47239;SDS011;32978;53.586;10.052;2023-01-16T08:19:59;13.73;;;12.82;;
47239;SDS011;32978;53.586;10.052;2023-01-16T08:24:55;13.95;;;12.52;;
47239;SDS011;32978;53.586;10.052;2023-01-16T08:29:53;11.75;;;10.93;;
47239;SDS011;32978;53.586;10.052;2023-01-16T08:34:50;12.05;;;11.02;;
47239;SDS011;32978;53.586;10.052;2023-01-16T08:39:46;11.20;;;10.50;;
47239;SDS011;32978;53.586;10.052;2023-01-16T08:44:43;11.90;;;10.90;;
47239;SDS011;32978;53.586;10.052;2023-01-16T08:49:57;12.77;;;10.98;;
47239;SDS011;32978;53.586;10.052;2023-01-16T08:55:13;11.43;;;10.52;;
47239;SDS011;32978;53.586;10.052;2023-01-16T09:00:11;11.20;;;10.02;;
47239;SDS011;32978;53.586;10.052;2023-01-16T09:05:08;11.20;;;10.10;;
47239;SDS011;32978;53.586;10.052;2023-01-16T09:10:05;10.40;;;9.70;;
47239;SDS011;32978;53.586;10.052;2023-01-16T09:15:02;10.38;;;9.50;;
47239;SDS011;32978;53.586;10.052;2023-01-16T09:20:00;10.70;;;9.80;;
47239;SDS011;32978;53.586;10.052;2023-01-16T09:24:56;10.20;;;9.60;;
47239;SDS011;32978;53.586;10.052;2023-01-16T09:29:53;10.88;;;10.00;;
47239;SDS011;32978;53.586;10.052;2023-01-16T09:34:49;10.20;;;9.15;;
47239;SDS011;32978;53.586;10.052;2023-01-16T09:39:46;9.75;;;8.85;;
47239;SDS011;32978;53.586;10.052;2023-01-16T09:44:43;10.07;;;8.85;;
47239;SDS011;32978;53.586;10.052;2023-01-16T09:49:47;9.48;;;8.65;;
47239;SDS011;32978;53.586;10.052;2023-01-16T09:54:50;9.25;;;8.45;;
47239;SDS011;32978;53.586;10.052;2023-01-16T10:00:07;8.82;;;7.97;;
47239;SDS011;32978;53.586;10.052;2023-01-16T10:05:05;7.63;;;7.03;;
47239;SDS011;32978;53.586;10.052;2023-01-16T10:15:08;8.35;;;7.57;;
47239;SDS011;32978;53.586;10.052;2023-01-16T10:20:37;8.35;;;6.82;;
47239;SDS011;32978;53.586;10.052;2023-01-16T10:25:47;7.32;;;6.70;;
47239;SDS011;32978;53.586;10.052;2023-01-16T10:30:52;7.75;;;7.05;;
47239;SDS011;32978;53.586;10.052;2023-01-16T10:35:51;7.28;;;6.68;;
47239;SDS011;32978;53.586;10.052;2023-01-16T10:40:51;7.35;;;6.75;;
47239;SDS011;32978;53.586;10.052;2023-01-16T10:45:50;8.15;;;7.32;;
47239;SDS011;32978;53.586;10.052;2023-01-16T10:51:10;8.02;;;7.40;;
47239;SDS011;32978;53.586;10.052;2023-01-16T10:56:07;6.95;;;6.35;;
47239;SDS011;32978;53.586;10.052;2023-01-16T11:01:20;8.10;;;7.50;;
47239;SDS011;32978;53.586;10.052;2023-01-16T11:06:24;8.77;;;7.90;;
47239;SDS011;32978;53.586;10.052;2023-01-16T11:11:23;9.32;;;8.52;;
47239;SDS011;32978;53.586;10.052;2023-01-16T11:16:41;11.98;;;9.80;;
47239;SDS011;32978;53.586;10.052;2023-01-16T11:21:57;9.15;;;8.45;;
47239;SDS011;32978;53.586;10.052;2023-01-16T11:26:57;8.55;;;7.90;;
47239;SDS011;32978;53.586;10.052;2023-01-16T11:31:59;7.85;;;7.22;;
47239;SDS011;32978;53.586;10.052;2023-01-16T11:37:01;8.25;;;7.55;;
47239;SDS011;32978;53.586;10.052;2023-01-16T11:42:04;8.80;;;7.22;;
47239;SDS011;32978;53.586;10.052;2023-01-16T11:47:26;7.70;;;7.10;;
47239;SDS011;32978;53.586;10.052;2023-01-16T11:52:23;8.23;;;7.53;;
47239;SDS011;32978;53.586;10.052;2023-01-16T12:08:06;7.38;;;6.70;;
47239;SDS011;32978;53.586;10.052;2023-01-16T12:13:08;7.45;;;6.72;;
47239;SDS011;32978;53.586;10.052;2023-01-16T12:23:54;6.75;;;6.05;;
47239;SDS011;32978;53.586;10.052;2023-01-16T12:34:36;6.40;;;5.90;;
47239;SDS011;32978;53.586;10.052;2023-01-16T12:45:03;8.43;;;5.95;;
47239;SDS011;32978;53.586;10.052;2023-01-16T12:50:19;6.50;;;5.75;;
47239;SDS011;32978;53.586;10.052;2023-01-16T13:01:06;7.45;;;5.70;;
47239;SDS011;32978;53.586;10.052;2023-01-16T13:06:13;6.25;;;5.50;;
47239;SDS011;32978;53.586;10.052;2023-01-16T13:11:16;6.88;;;5.43;;
47239;SDS011;32978;53.586;10.052;2023-01-16T13:17:08;6.78;;;5.70;;
47239;SDS011;32978;53.586;10.052;2023-01-16T13:22:24;6.90;;;5.60;;
47239;SDS011;32978;53.586;10.052;2023-01-16T13:27:25;9.18;;;5.90;;
47239;SDS011;32978;53.586;10.052;2023-01-16T13:32:37;6.20;;;5.72;;
47239;SDS011;32978;53.586;10.052;2023-01-16T13:42:57;6.53;;;5.93;;
47239;SDS011;32978;53.586;10.052;2023-01-16T13:48:19;7.55;;;6.07;;
47239;SDS011;32978;53.586;10.052;2023-01-16T13:53:18;7.13;;;6.45;;
47239;SDS011;32978;53.586;10.052;2023-01-16T13:58:19;6.20;;;5.60;;
47239;SDS011;32978;53.586;10.052;2023-01-16T14:03:20;6.50;;;5.90;;
47239;SDS011;32978;53.586;10.052;2023-01-16T14:08:26;7.22;;;6.00;;
47239;SDS011;32978;53.586;10.052;2023-01-16T14:13:41;8.33;;;6.07;;
47239;SDS011;32978;53.586;10.052;2023-01-16T14:23:41;6.85;;;6.07;;
47239;SDS011;32978;53.586;10.052;2023-01-16T14:28:59;6.70;;;6.20;;
47239;SDS011;32978;53.586;10.052;2023-01-16T14:33:58;6.57;;;5.97;;
47239;SDS011;32978;53.586;10.052;2023-01-16T14:38:54;6.68;;;6.03;;
47239;SDS011;32978;53.586;10.052;2023-01-16T14:44:02;8.05;;;7.25;;
47239;SDS011;32978;53.586;10.052;2023-01-16T14:49:40;6.68;;;5.97;;
47239;SDS011;32978;53.586;10.052;2023-01-16T14:54:58;7.85;;;5.95;;
47239;SDS011;32978;53.586;10.052;2023-01-16T15:00:13;7.75;;;6.93;;
47239;SDS011;32978;53.586;10.052;2023-01-16T15:05:58;6.53;;;5.73;;
47239;SDS011;32978;53.586;10.052;2023-01-16T15:10:48;6.78;;;6.03;;
47239;SDS011;32978;53.586;10.052;2023-01-16T15:15:47;6.88;;;5.45;;
47239;SDS011;32978;53.586;10.052;2023-01-16T15:20:48;6.13;;;5.63;;
47239;SDS011;32978;53.586;10.052;2023-01-16T15:31:00;6.93;;;6.22;;
47239;SDS011;32978;53.586;10.052;2023-01-16T15:36:01;7.20;;;6.65;;
47239;SDS011;32978;53.586;10.052;2023-01-16T15:40:58;9.43;;;6.80;;
47239;SDS011;32978;53.586;10.052;2023-01-16T15:46:10;7.05;;;6.38;;
47239;SDS011;32978;53.586;10.052;2023-01-16T15:51:28;7.82;;;6.88;;
47239;SDS011;32978;53.586;10.052;2023-01-16T15:56:36;7.97;;;7.28;;
47239;SDS011;32978;53.586;10.052;2023-01-16T16:01:50;7.60;;;6.88;;
47239;SDS011;32978;53.586;10.052;2023-01-16T16:06:46;8.55;;;6.95;;
47239;SDS011;32978;53.586;10.052;2023-01-16T16:11:43;7.63;;;6.93;;
47239;SDS011;32978;53.586;10.052;2023-01-16T16:17:02;9.23;;;7.30;;
47239;SDS011;32978;53.586;10.052;2023-01-16T16:22:20;8.25;;;6.95;;
47239;SDS011;32978;53.586;10.052;2023-01-16T16:27:40;7.68;;;6.88;;
47239;SDS011;32978;53.586;10.052;2023-01-16T16:32:37;9.68;;;7.63;;
47239;SDS011;32978;53.586;10.052;2023-01-16T16:37:34;7.68;;;6.97;;
47239;SDS011;32978;53.586;10.052;2023-01-16T16:47:27;7.80;;;6.80;;
47239;SDS011;32978;53.586;10.052;2023-01-16T16:52:35;8.18;;;7.47;;
47239;SDS011;32978;53.586;10.052;2023-01-16T16:57:41;7.88;;;7.18;;
47239;SDS011;32978;53.586;10.052;2023-01-16T17:02:38;8.35;;;7.55;;
47239;SDS011;32978;53.586;10.052;2023-01-16T17:07:35;8.00;;;7.25;;
47239;SDS011;32978;53.586;10.052;2023-01-16T17:12:32;8.40;;;7.20;;
47239;SDS011;32978;53.586;10.052;2023-01-16T17:17:28;10.93;;;8.18;;
47239;SDS011;32978;53.586;10.052;2023-01-16T17:22:25;8.85;;;8.15;;
47239;SDS011;32978;53.586;10.052;2023-01-16T17:27:22;8.70;;;8.00;;
47239;SDS011;32978;53.586;10.052;2023-01-16T17:32:28;8.80;;;8.10;;
47239;SDS011;32978;53.586;10.052;2023-01-16T17:37:26;14.07;;;7.85;;
47239;SDS011;32978;53.586;10.052;2023-01-16T17:42:22;8.68;;;7.88;;
47239;SDS011;32978;53.586;10.052;2023-01-16T17:47:37;10.35;;;8.10;;
47239;SDS011;32978;53.586;10.052;2023-01-16T17:52:34;8.10;;;7.40;;
47239;SDS011;32978;53.586;10.052;2023-01-16T17:57:32;10.40;;;8.65;;
47239;SDS011;32978;53.586;10.052;2023-01-16T18:02:28;9.88;;;7.50;;
47239;SDS011;32978;53.586;10.052;2023-01-16T18:07:25;8.32;;;7.63;;
47239;SDS011;32978;53.586;10.052;2023-01-16T18:12:21;11.07;;;7.82;;
47239;SDS011;32978;53.586;10.052;2023-01-16T18:17:36;9.40;;;8.43;;
47239;SDS011;32978;53.586;10.052;2023-01-16T18:22:34;8.98;;;8.18;;
47239;SDS011;32978;53.586;10.052;2023-01-16T18:27:31;8.18;;;7.47;;
47239;SDS011;32978;53.586;10.052;2023-01-16T18:32:27;7.57;;;6.80;;
47239;SDS011;32978;53.586;10.052;2023-01-16T18:37:25;7.85;;;7.25;;
47239;SDS011;32978;53.586;10.052;2023-01-16T18:42:24;8.52;;;7.70;;
47239;SDS011;32978;53.586;10.052;2023-01-16T18:47:39;7.45;;;6.93;;
47239;SDS011;32978;53.586;10.052;2023-01-16T18:52:54;8.20;;;6.95;;
47239;SDS011;32978;53.586;10.052;2023-01-16T18:58:11;8.15;;;7.30;;
47239;SDS011;32978;53.586;10.052;2023-01-16T19:03:27;7.15;;;6.60;;
47239;SDS011;32978;53.586;10.052;2023-01-16T19:08:24;7.10;;;6.50;;
47239;SDS011;32978;53.586;10.052;2023-01-16T19:13:22;7.25;;;6.72;;
47239;SDS011;32978;53.586;10.052;2023-01-16T19:18:32;7.32;;;6.82;;
47239;SDS011;32978;53.586;10.052;2023-01-16T19:23:29;7.10;;;6.50;;
47239;SDS011;32978;53.586;10.052;2023-01-16T19:28:25;7.70;;;7.00;;
47239;SDS011;32978;53.586;10.052;2023-01-16T19:33:22;7.55;;;6.95;;
47239;SDS011;32978;53.586;10.052;2023-01-16T19:38:18;7.75;;;7.07;;
47239;SDS011;32978;53.586;10.052;2023-01-16T19:43:15;8.23;;;6.82;;
47239;SDS011;32978;53.586;10.052;2023-01-16T19:48:29;8.38;;;6.82;;
47239;SDS011;32978;53.586;10.052;2023-01-16T19:53:26;7.45;;;6.85;;
47239;SDS011;32978;53.586;10.052;2023-01-16T19:58:22;7.43;;;6.70;;
47239;SDS011;32978;53.586;10.052;2023-01-16T20:03:19;7.25;;;6.65;;
47239;SDS011;32978;53.586;10.052;2023-01-16T20:08:15;7.93;;;6.40;;
47239;SDS011;32978;53.586;10.052;2023-01-16T20:13:12;6.60;;;6.00;;
47239;SDS011;32978;53.586;10.052;2023-01-16T20:18:08;6.82;;;6.13;;
47239;SDS011;32978;53.586;10.052;2023-01-16T20:23:04;6.80;;;6.20;;
47239;SDS011;32978;53.586;10.052;2023-01-16T20:28:01;7.15;;;6.00;;
47239;SDS011;32978;53.586;10.052;2023-01-16T20:32:57;6.03;;;5.50;;
47239;SDS011;32978;53.586;10.052;2023-01-16T20:37:54;6.88;;;6.38;;
47239;SDS011;32978;53.586;10.052;2023-01-16T20:42:50;6.10;;;5.60;;
47239;SDS011;32978;53.586;10.052;2023-01-16T20:48:05;7.20;;;6.40;;
47239;SDS011;32978;53.586;10.052;2023-01-16T20:53:01;5.93;;;5.43;;
47239;SDS011;32978;53.586;10.052;2023-01-16T20:57:58;5.95;;;5.35;;
47239;SDS011;32978;53.586;10.052;2023-01-16T21:02:54;7.68;;;5.13;;
47239;SDS011;32978;53.586;10.052;2023-01-16T21:07:51;5.93;;;5.40;;
47239;SDS011;32978;53.586;10.052;2023-01-16T21:12:47;5.68;;;5.20;;
47239;SDS011;32978;53.586;10.052;2023-01-16T21:18:02;8.23;;;6.18;;
47239;SDS011;32978;53.586;10.052;2023-01-16T21:23:17;6.47;;;5.88;;
47239;SDS011;32978;53.586;10.052;2023-01-16T21:28:13;6.85;;;6.20;;
47239;SDS011;32978;53.586;10.052;2023-01-16T21:33:10;7.18;;;6.47;;
47239;SDS011;32978;53.586;10.052;2023-01-16T21:38:06;8.65;;;6.55;;
47239;SDS011;32978;53.586;10.052;2023-01-16T21:43:03;7.93;;;6.38;;
47239;SDS011;32978;53.586;10.052;2023-01-16T21:48:18;6.40;;;5.80;;
47239;SDS011;32978;53.586;10.052;2023-01-16T21:53:18;6.30;;;5.80;;
47239;SDS011;32978;53.586;10.052;2023-01-16T21:58:29;6.55;;;5.53;;
47239;SDS011;32978;53.586;10.052;2023-01-16T22:03:26;7.85;;;6.10;;
47239;SDS011;32978;53.586;10.052;2023-01-16T22:08:23;6.97;;;6.32;;
47239;SDS011;32978;53.586;10.052;2023-01-16T22:13:21;8.25;;;7.55;;
47239;SDS011;32978;53.586;10.052;2023-01-16T22:18:35;7.57;;;6.97;;
47239;SDS011;32978;53.586;10.052;2023-01-16T22:23:33;7.57;;;6.90;;
47239;SDS011;32978;53.586;10.052;2023-01-16T22:28:30;8.20;;;7.60;;
47239;SDS011;32978;53.586;10.052;2023-01-16T22:33:28;10.48;;;9.52;;
47239;SDS011;32978;53.586;10.052;2023-01-16T22:38:25;10.27;;;9.55;;
47239;SDS011;32978;53.586;10.052;2023-01-16T22:43:21;10.32;;;9.57;;
47239;SDS011;32978;53.586;10.052;2023-01-16T22:48:36;9.88;;;9.18;;
47239;SDS011;32978;53.586;10.052;2023-01-16T22:53:33;11.52;;;10.82;;
47239;SDS011;32978;53.586;10.052;2023-01-16T22:58:30;11.15;;;10.40;;
47239;SDS011;32978;53.586;10.052;2023-01-16T23:03:26;11.10;;;10.30;;
47239;SDS011;32978;53.586;10.052;2023-01-16T23:08:23;11.40;;;10.70;;
47239;SDS011;32978;53.586;10.052;2023-01-16T23:13:19;11.90;;;10.93;;
47239;SDS011;32978;53.586;10.052;2023-01-16T23:18:15;11.35;;;10.48;;
47239;SDS011;32978;53.586;10.052;2023-01-16T23:23:12;13.93;;;12.93;;
47239;SDS011;32978;53.586;10.052;2023-01-16T23:28:09;16.60;;;15.30;;
47239;SDS011;32978;53.586;10.052;2023-01-16T23:33:06;13.25;;;12.35;;
47239;SDS011;32978;53.586;10.052;2023-01-16T23:38:03;13.60;;;12.60;;
47239;SDS011;32978;53.586;10.052;2023-01-16T23:43:00;13.55;;;12.65;;
47239;SDS011;32978;53.586;10.052;2023-01-16T23:48:18;13.18;;;12.38;;
47239;SDS011;32978;53.586;10.052;2023-01-16T23:53:15;14.70;;;13.70;;
47239;SDS011;32978;53.586;10.052;2023-01-16T23:58:11;13.77;;;12.77;;
